Time;durP1;ratioP1;P1;durP2;ratioP2;P2;SDS_P1;SDS_P2;PMS_P1;PMS_P2;Temp;Humidity;BMP_temperature;BMP_pressure;BME280_temperature;BME280_humidity;BME280_pressure;Samples;Min_cycle;Max_cycle;Signal;HPM_P1;HPM_P2
2021/10/16 00:00:14;;;;;;;;;;;;;;;7.87;79.03;101422.27;1813784;79;20121;-60
2021/10/16 00:02:42;;;;;;;;;;;;;;;7.85;79.05;101417.50;1813688;79;20109;-61
2021/10/16 00:05:10;;;;;;;;;;;;;;;7.84;78.81;101414.02;1813855;79;20161;-60
2021/10/16 00:07:38;;;;;;;;;;;;;;;7.82;78.81;101410.98;1813630;79;20197;-60
2021/10/16 00:10:06;;;;;;;;;;;;;;;7.78;79.18;101418.48;1813386;79;20149;-60
2021/10/16 00:12:34;;;;;;;;;;;;;;;7.72;79.33;101411.14;1813259;79;20113;-60
2021/10/16 00:15:01;;;;;;;;;;;;;;;7.67;79.72;101414.30;1813391;79;20121;-61
2021/10/16 00:17:29;;;;;;;;;;;;;;;7.63;79.85;101406.05;1813445;79;20208;-60
2021/10/16 00:19:57;;;;;;;;;;;;;;;7.64;79.52;101402.55;1813758;79;20121;-61
2021/10/16 00:22:25;;;;;;;;;;;;;;;7.65;79.75;101400.33;1814187;79;20156;-60
2021/10/16 00:24:52;;;;;;;;;;;;;;;7.61;80.14;101397.80;1814049;79;20125;-60
2021/10/16 00:27:21;;;;;;;;;;;;;;;7.58;80.12;101398.73;1814022;79;20126;-60
2021/10/16 00:29:48;;;;;;;;;;;;;;;7.55;80.36;101393.53;1813988;79;20172;-61
2021/10/16 00:32:16;;;;;;;;;;;;;;;7.54;80.22;101391.78;1813993;79;20122;-60
2021/10/16 00:34:44;;;;;;;;;;;;;;;7.52;80.29;101387.90;1814066;79;20105;-60
2021/10/16 00:37:12;;;;;;;;;;;;;;;7.52;80.17;101389.21;1812732;79;20113;-60
2021/10/16 00:39:40;;;;;;;;;;;;;;;7.52;79.91;101391.83;1814068;79;20156;-60
2021/10/16 00:42:08;;;;;;;;;;;;;;;7.53;79.77;101396.16;1812722;79;20169;-60
2021/10/16 00:44:36;;;;;;;;;;;;;;;7.49;79.90;101393.63;1813793;79;20137;-60
2021/10/16 00:47:04;;;;;;;;;;;;;;;7.42;80.12;101386.75;1812978;79;20113;-60
2021/10/16 00:49:33;;;;;;;;;;;;;;;7.38;80.00;101382.00;1814019;79;20121;-60
2021/10/16 00:52:02;;;;;;;;;;;;;;;7.32;80.23;101377.73;1814038;79;20395;-60
2021/10/16 00:54:31;;;;;;;;;;;;;;;7.30;80.36;101378.20;1813071;79;20118;-60
2021/10/16 00:57:00;;;;;;;;;;;;;;;7.27;80.46;101378.23;1813931;79;20184;-60
2021/10/16 00:59:29;;;;;;;;;;;;;;;7.20;80.85;101371.81;1814033;79;20384;-60
2021/10/16 01:01:57;;;;;;;;;;;;;;;7.15;81.01;101375.33;1814044;79;20114;-60
2021/10/16 01:04:25;;;;;;;;;;;;;;;7.16;80.75;101372.30;1814073;79;20152;-60
2021/10/16 01:06:55;;;;;;;;;;;;;;;7.19;80.74;101376.16;1813631;79;20138;-62
2021/10/16 01:09:22;;;;;;;;;;;;;;;7.19;81.03;101372.68;1813958;79;20125;-61
2021/10/16 01:11:52;;;;;;;;;;;;;;;7.19;81.17;101372.68;1814057;79;20113;-60
2021/10/16 01:14:20;;;;;;;;;;;;;;;7.14;81.09;101363.59;1813969;79;20164;-61
2021/10/16 01:16:50;;;;;;;;;;;;;;;7.09;81.19;101357.56;1813697;79;20442;-61
2021/10/16 01:19:19;;;;;;;;;;;;;;;7.01;81.34;101356.78;1814206;79;20168;-61
2021/10/16 01:21:48;;;;;;;;;;;;;;;6.94;81.37;101356.02;1813978;78;20160;-61
2021/10/16 01:24:17;;;;;;;;;;;;;;;6.91;81.51;101360.84;1813968;79;20133;-61
2021/10/16 01:26:46;;;;;;;;;;;;;;;6.91;81.53;101367.84;1813917;79;20114;-61
2021/10/16 01:29:15;;;;;;;;;;;;;;;6.88;81.37;101368.77;1813917;79;20113;-60
2021/10/16 01:31:43;;;;;;;;;;;;;;;6.88;81.27;101362.22;1813646;79;20374;-60
2021/10/16 01:34:11;;;;;;;;;;;;;;;6.85;81.30;101364.86;1813998;79;20133;-61
2021/10/16 01:36:40;;;;;;;;;;;;;;;6.83;81.57;101367.95;1813379;79;20156;-61
2021/10/16 01:39:08;;;;;;;;;;;;;;;6.81;81.56;101378.89;1813143;79;20153;-61
2021/10/16 01:41:38;;;;;;;;;;;;;;;6.79;81.40;101374.12;1813963;79;20376;-61
2021/10/16 01:44:07;;;;;;;;;;;;;;;6.80;81.23;101376.28;1814029;79;20129;-61
2021/10/16 01:46:34;;;;;;;;;;;;;;;6.79;81.15;101364.95;1814013;79;20152;-61
2021/10/16 01:49:13;;;;;;;;;;;;;;;6.76;81.26;101358.45;1813948;79;20133;-60
2021/10/16 01:51:42;;;;;;;;;;;;;;;6.73;81.46;101352.82;1813121;79;20126;-60
2021/10/16 01:54:10;;;;;;;;;;;;;;;6.72;81.83;101349.77;1814077;79;20407;-61
2021/10/16 01:56:39;;;;;;;;;;;;;;;6.69;81.91;101349.80;1814066;79;20207;-61
2021/10/16 01:59:18;;;;;;;;;;;;;;;6.66;82.25;101347.66;1813999;79;20109;-60
2021/10/16 02:02:04;;;;;;;;;;;;;;;6.64;82.31;101346.81;1813975;79;20166;-60
2021/10/16 02:04:33;;;;;;;;;;;;;;;6.66;82.23;101354.20;1813987;79;20121;-61
2021/10/16 02:07:01;;;;;;;;;;;;;;;6.66;82.08;101348.55;1814150;79;20122;-61
2021/10/16 02:09:31;;;;;;;;;;;;;;;6.62;81.96;101340.32;1813712;79;20380;-61
2021/10/16 02:11:59;;;;;;;;;;;;;;;6.62;82.10;101342.94;1813899;79;20218;-62
2021/10/16 02:14:27;;;;;;;;;;;;;;;6.66;81.78;101339.81;1814102;79;20204;-61
2021/10/16 02:16:57;;;;;;;;;;;;;;;6.70;81.63;101335.84;1813572;79;20145;-61
2021/10/16 02:19:25;;;;;;;;;;;;;;;6.66;81.69;101334.58;1814103;79;20152;-60
2021/10/16 02:21:55;;;;;;;;;;;;;;;6.61;81.73;101333.80;1807936;78;20141;-61
2021/10/16 02:24:24;;;;;;;;;;;;;;;6.57;81.64;101332.52;1787749;80;20146;-61
2021/10/16 02:26:52;;;;;;;;;;;;;;;6.55;81.53;101332.98;1787399;80;20125;-60
2021/10/16 02:29:21;;;;;;;;;;;;;;;6.50;81.53;101332.17;1786209;79;20372;-61
2021/10/16 02:31:51;;;;;;;;;;;;;;;6.50;81.54;101332.62;1787346;80;20110;-60
2021/10/16 02:34:19;;;;;;;;;;;;;;;6.47;81.48;101334.81;1787300;80;20165;-60
2021/10/16 02:36:48;;;;;;;;;;;;;;;6.46;81.36;101333.09;1787719;80;20121;-60
2021/10/16 02:39:16;;;;;;;;;;;;;;;6.43;81.32;101331.82;1787233;79;20126;-60
2021/10/16 02:41:44;;;;;;;;;;;;;;;6.37;81.26;101330.59;1786863;80;20122;-60
2021/10/16 02:44:12;;;;;;;;;;;;;;;6.36;81.41;101321.00;1787549;80;20153;-60
2021/10/16 02:46:41;;;;;;;;;;;;;;;6.37;81.38;101324.06;1787131;80;20111;-61
2021/10/16 02:49:30;;;;;;;;;;;;;;;6.40;81.29;101324.45;1876624;76;20174;-60
2021/10/16 02:51:59;;;;;;;;;;;;;;;6.37;81.34;101321.44;1875913;76;20117;-58
2021/10/16 02:54:27;;;;;;;;;;;;;;;6.35;81.58;101326.69;1875895;76;20144;-58
2021/10/16 02:56:55;;;;;;;;;;;;;;;6.37;81.55;101327.98;1875852;76;20148;-59
2021/10/16 02:59:22;;;;;;;;;;;;;;;6.35;81.56;101330.61;1875846;76;20117;-58
2021/10/16 03:01:55;;;;;;;;;;;;;;;6.34;81.54;101325.39;1875642;76;20184;-60
2021/10/16 03:04:30;;;;;;;;;;;;;;;6.28;81.69;101312.40;1875913;76;20113;-57
2021/10/16 03:06:58;;;;;;;;;;;;;;;6.27;81.69;101309.34;1875830;76;20117;-61
2021/10/16 03:09:27;;;;;;;;;;;;;;;6.23;81.68;101304.59;1875958;76;20113;-60
2021/10/16 03:11:56;;;;;;;;;;;;;;;6.18;81.74;101312.51;1875830;76;20395;-60
2021/10/16 03:14:24;;;;;;;;;;;;;;;6.16;81.74;101307.74;1875850;76;20113;-61
2021/10/16 03:16:53;;;;;;;;;;;;;;;6.16;81.96;101302.93;1875715;76;20372;-61
2021/10/16 03:19:22;;;;;;;;;;;;;;;6.10;82.27;101298.64;1875847;76;20117;-61
2021/10/16 03:21:51;;;;;;;;;;;;;;;6.09;82.34;101300.85;1875658;76;20116;-60
2021/10/16 03:24:21;;;;;;;;;;;;;;;6.08;82.41;101295.63;1875726;76;20128;-60
2021/10/16 03:26:49;;;;;;;;;;;;;;;6.04;82.56;101292.19;1875845;76;20156;-60
2021/10/16 03:29:17;;;;;;;;;;;;;;;5.99;82.79;101289.64;1875675;76;20121;-60
2021/10/16 03:31:45;;;;;;;;;;;;;;;5.99;82.76;101287.45;1875908;76;20172;-60
2021/10/16 03:34:13;;;;;;;;;;;;;;;6.01;82.53;101285.67;1875812;76;20196;-59
2021/10/16 03:36:43;;;;;;;;;;;;;;;6.01;82.39;101294.83;1877938;76;20122;-60
2021/10/16 03:39:10;;;;;;;;;;;;;;;6.00;82.68;101287.88;1875799;76;20148;-60
2021/10/16 03:41:39;;;;;;;;;;;;;;;5.97;82.88;101288.77;1875742;76;20124;-60
2021/10/16 03:44:08;;;;;;;;;;;;;;;5.97;82.91;101289.22;1875842;76;20179;-60
2021/10/16 03:46:36;;;;;;;;;;;;;;;6.00;82.98;101289.19;1875836;76;20121;-60
2021/10/16 03:49:04;;;;;;;;;;;;;;;6.02;83.10;101286.56;1860564;76;20149;-60
2021/10/16 03:51:32;;;;;;;;;;;;;;;6.00;83.16;101282.66;1857733;76;20129;-60
2021/10/16 03:54:01;;;;;;;;;;;;;;;6.04;82.97;101279.12;1875962;76;20121;-60
2021/10/16 03:56:31;;;;;;;;;;;;;;;6.07;82.84;101280.40;1875952;76;20148;-60
2021/10/16 03:58:59;;;;;;;;;;;;;;;6.10;82.76;101276.42;1875966;76;20415;-58
2021/10/16 04:01:26;;;;;;;;;;;;;;;6.11;82.79;101282.08;1875866;76;20129;-60
2021/10/16 04:03:54;;;;;;;;;;;;;;;6.13;82.83;101282.93;1875377;76;20156;-61
2021/10/16 04:06:22;;;;;;;;;;;;;;;6.16;82.78;101275.05;1876295;75;20144;-61
2021/10/16 04:08:50;;;;;;;;;;;;;;;6.18;82.72;101282.89;1875802;76;20109;-61
2021/10/16 04:11:19;;;;;;;;;;;;;;;6.17;82.63;101280.69;1875861;76;20215;-61
2021/10/16 04:13:47;;;;;;;;;;;;;;;6.17;82.67;101274.16;1913406;75;20106;-62
2021/10/16 04:16:15;;;;;;;;;;;;;;;6.19;82.66;101280.23;1915038;75;20119;-62
2021/10/16 04:18:43;;;;;;;;;;;;;;;6.20;82.54;101270.66;1915119;75;20110;-61
2021/10/16 04:21:10;;;;;;;;;;;;;;;6.22;82.52;101273.26;1915029;75;20106;-60
2021/10/16 04:23:38;;;;;;;;;;;;;;;6.26;82.48;101277.56;1915094;75;20181;-60
2021/10/16 04:26:06;;;;;;;;;;;;;;;6.26;82.71;101287.57;1915158;75;20149;-59
2021/10/16 04:28:35;;;;;;;;;;;;;;;6.29;82.78;101291.88;1915120;75;20122;-59
2021/10/16 04:31:04;;;;;;;;;;;;;;;6.33;82.68;101288.37;1912521;75;20106;-59
2021/10/16 04:33:32;;;;;;;;;;;;;;;6.38;82.55;101286.53;1915079;75;20111;-59
2021/10/16 04:36:02;;;;;;;;;;;;;;;6.44;82.42;101294.33;1914999;75;20149;-60
2021/10/16 04:38:29;;;;;;;;;;;;;;;6.52;82.27;101292.45;1915054;75;20118;-60
2021/10/16 04:40:57;;;;;;;;;;;;;;;6.63;82.14;101291.46;1915057;75;20118;-60
2021/10/16 04:43:25;;;;;;;;;;;;;;;6.76;81.93;101299.55;1915167;75;20102;-60
2021/10/16 04:45:53;;;;;;;;;;;;;;;6.91;81.65;101298.01;1915173;75;20106;-59
2021/10/16 04:48:21;;;;;;;;;;;;;;;7.01;81.40;101300.06;1915627;74;20122;-61
2021/10/16 04:50:51;;;;;;;;;;;;;;;7.15;81.17;101311.17;1921409;75;20185;-60
2021/10/16 04:53:21;;;;;;;;;;;;;;;7.25;80.91;101300.55;1921565;75;20118;-59
2021/10/16 04:56:07;;;;;;;;;;;;;;;7.35;80.77;101295.59;1880526;76;20412;-59
2021/10/16 04:58:35;;;;;;;;;;;;;;;7.54;80.44;101294.81;1880339;76;20117;-59
2021/10/16 05:01:03;;;;;;;;;;;;;;;7.74;80.16;101288.77;1880256;76;20124;-59
2021/10/16 05:03:31;;;;;;;;;;;;;;;8.01;79.89;101285.22;1880441;76;20147;-59
2021/10/16 05:05:59;;;;;;;;;;;;;;;8.28;79.62;101289.47;1880410;76;20113;-59
2021/10/16 05:08:28;;;;;;;;;;;;;;;8.53;79.34;101294.26;1880348;76;20133;-59
2021/10/16 05:10:57;;;;;;;;;;;;;;;8.75;79.19;101296.81;1880388;76;20109;-59
2021/10/16 05:13:25;;;;;;;;;;;;;;;8.91;79.02;101291.20;1880301;76;20109;-60
2021/10/16 05:15:52;;;;;;;;;;;;;;;9.13;78.77;101288.93;1880370;76;20116;-59
2021/10/16 05:18:23;;;;;;;;;;;;;;;9.42;78.44;101280.33;1880488;76;20462;-59
2021/10/16 05:20:53;;;;;;;;;;;;;;;9.74;77.99;101278.61;1880386;76;20190;-60
2021/10/16 05:23:22;;;;;;;;;;;;;;;9.99;77.55;101278.35;1880025;76;20163;-61
2021/10/16 05:25:51;;;;;;;;;;;;;;;10.29;77.33;101275.77;1880414;76;20144;-62
2021/10/16 05:28:20;;;;;;;;;;;;;;;10.49;77.14;101280.92;1880552;76;20422;-61
2021/10/16 05:30:50;;;;;;;;;;;;;;;10.56;76.76;101279.83;1880253;76;20112;-61
2021/10/16 05:33:18;;;;;;;;;;;;;;;10.50;76.43;101282.66;1880478;76;20152;-61
2021/10/16 05:35:46;;;;;;;;;;;;;;;10.46;76.16;101281.88;1880337;76;20159;-61
2021/10/16 05:38:16;;;;;;;;;;;;;;;10.45;76.04;101280.61;1880006;76;20124;-61
2021/10/16 05:40:44;;;;;;;;;;;;;;;10.45;76.00;101282.78;1880292;76;20183;-61
2021/10/16 05:43:12;;;;;;;;;;;;;;;10.45;75.93;101286.73;1880376;76;20194;-58
2021/10/16 05:45:41;;;;;;;;;;;;;;;10.42;75.95;101290.75;1880404;76;20116;-58
2021/10/16 05:48:10;;;;;;;;;;;;;;;10.43;75.93;101288.08;1880505;76;20147;-58
2021/10/16 05:50:38;;;;;;;;;;;;;;;10.52;75.86;101284.78;1880343;76;20112;-58
2021/10/16 05:53:07;;;;;;;;;;;;;;;10.56;75.72;101285.09;1880385;76;20117;-59
2021/10/16 05:55:35;;;;;;;;;;;;;;;10.62;75.79;101280.52;1880302;76;20109;-58
2021/10/16 05:58:02;;;;;;;;;;;;;;;10.77;75.86;101280.50;1880443;76;20164;-58
2021/10/16 06:00:32;;;;;;;;;;;;;;;11.03;75.71;101282.77;1880441;76;20160;-58
2021/10/16 06:03:01;;;;;;;;;;;;;;;11.29;75.52;101287.17;1880331;76;20426;-58
2021/10/16 06:05:30;;;;;;;;;;;;;;;11.54;75.29;101279.73;1879917;76;20117;-59
2021/10/16 06:07:58;;;;;;;;;;;;;;;11.83;75.17;101280.04;1880335;76;20118;-59
2021/10/16 06:10:26;;;;;;;;;;;;;;;12.08;74.48;101273.89;1880301;76;20104;-58
2021/10/16 06:12:54;;;;;;;;;;;;;;;12.21;74.27;101275.19;1880310;76;20117;-58
2021/10/16 06:15:23;;;;;;;;;;;;;;;12.29;74.34;101278.86;1880365;76;20156;-58
2021/10/16 06:17:51;;;;;;;;;;;;;;;12.40;74.16;101273.17;1880333;76;20151;-58
2021/10/16 06:20:19;;;;;;;;;;;;;;;12.46;73.96;101278.21;1880442;76;20105;-59
2021/10/16 06:22:49;;;;;;;;;;;;;;;12.51;73.71;101277.58;1880322;76;20148;-58
2021/10/16 06:25:17;;;;;;;;;;;;;;;12.58;73.73;101277.75;1880326;76;20106;-58
2021/10/16 06:27:45;;;;;;;;;;;;;;;12.64;73.87;101276.65;1880294;76;20113;-58
2021/10/16 06:30:13;;;;;;;;;;;;;;;12.68;73.31;101272.95;1880307;76;20215;-58
2021/10/16 06:32:42;;;;;;;;;;;;;;;12.81;72.73;101277.30;1880227;76;20144;-58
2021/10/16 06:35:10;;;;;;;;;;;;;;;13.00;72.90;101270.80;1880390;76;20129;-59
2021/10/16 06:37:38;;;;;;;;;;;;;;;13.13;72.79;101266.28;1880308;76;20117;-58
2021/10/16 06:40:07;;;;;;;;;;;;;;;13.24;72.23;101258.34;1880341;76;20120;-58
2021/10/16 06:42:36;;;;;;;;;;;;;;;13.45;72.37;101261.45;1880208;76;20146;-58
2021/10/16 06:45:24;;;;;;;;;;;;;;;13.53;71.75;101251.86;1880222;76;20113;-58
2021/10/16 06:47:53;;;;;;;;;;;;;;;13.49;71.17;101256.42;1877046;76;20128;-58
2021/10/16 06:50:25;;;;;;;;;;;;;;;13.79;70.18;101253.36;1880579;76;20378;-59
2021/10/16 06:52:53;;;;;;;;;;;;;;;14.33;69.70;101256.69;1880320;76;20164;-58
2021/10/16 06:55:21;;;;;;;;;;;;;;;15.09;68.82;101249.53;1881183;76;20108;-59
2021/10/16 06:57:49;;;;;;;;;;;;;;;15.99;66.82;101249.78;1883917;76;20128;-58
2021/10/16 07:00:17;;;;;;;;;;;;;;;16.82;65.59;101243.89;1884102;76;20418;-58
2021/10/16 07:02:45;;;;;;;;;;;;;;;17.56;65.25;101241.77;1884006;76;20155;-59
2021/10/16 07:05:15;;;;;;;;;;;;;;;17.97;63.63;101233.55;1884112;76;20363;-58
2021/10/16 07:07:43;;;;;;;;;;;;;;;18.50;62.98;101232.45;1884014;76;20160;-59
2021/10/16 07:10:12;;;;;;;;;;;;;;;18.86;61.51;101219.86;1883906;76;20116;-58
2021/10/16 07:12:40;;;;;;;;;;;;;;;19.16;61.37;101223.25;1884104;76;20144;-59
2021/10/16 07:15:08;;;;;;;;;;;;;;;19.55;61.67;101219.69;1883971;76;20125;-58
2021/10/16 07:17:36;;;;;;;;;;;;;;;20.08;60.84;101212.02;1883955;76;20151;-58
2021/10/16 07:20:04;;;;;;;;;;;;;;;20.30;60.79;101202.81;1883969;76;20164;-58
2021/10/16 07:22:32;;;;;;;;;;;;;;;20.47;60.37;101198.91;1883903;76;20117;-59
2021/10/16 07:24:59;;;;;;;;;;;;;;;20.93;58.87;101202.19;1884006;76;20203;-59
2021/10/16 07:27:27;;;;;;;;;;;;;;;21.26;57.49;101191.23;1884064;76;20116;-58
2021/10/16 07:29:55;;;;;;;;;;;;;;;21.55;57.55;101196.19;1884018;76;20124;-58
2021/10/16 07:32:23;;;;;;;;;;;;;;;22.14;57.83;101201.80;1884063;76;20156;-58
2021/10/16 07:34:51;;;;;;;;;;;;;;;22.63;55.48;101205.88;1884064;76;20117;-58
2021/10/16 07:37:19;;;;;;;;;;;;;;;23.09;55.66;101198.48;1883991;76;20116;-58
2021/10/16 07:39:46;;;;;;;;;;;;;;;22.91;52.14;101194.17;1884080;76;20116;-58
2021/10/16 07:42:14;;;;;;;;;;;;;;;23.09;52.27;101199.83;1884126;76;20152;-58
2021/10/16 07:44:42;;;;;;;;;;;;;;;23.35;53.16;101197.62;1884142;76;20145;-58
2021/10/16 07:47:10;;;;;;;;;;;;;;;23.59;52.71;101201.84;1884043;76;20151;-58
2021/10/16 07:49:38;;;;;;;;;;;;;;;23.82;51.97;101198.03;1884072;76;20116;-58
2021/10/16 07:52:05;;;;;;;;;;;;;;;24.32;51.21;101196.36;1883980;76;20191;-58
2021/10/16 07:54:33;;;;;;;;;;;;;;;24.10;49.06;101200.97;1884079;76;20160;-59
2021/10/16 07:57:01;;;;;;;;;;;;;;;24.06;50.11;101198.20;1875353;76;20148;-58
2021/10/16 07:59:29;;;;;;;;;;;;;;;24.15;50.86;101189.30;1871901;77;20113;-58
2021/10/16 08:01:57;;;;;;;;;;;;;;;24.55;50.48;101192.47;1872091;77;20403;-59
2021/10/16 08:04:25;;;;;;;;;;;;;;;24.58;50.18;101185.44;1871755;77;20113;-61
2021/10/16 08:06:53;;;;;;;;;;;;;;;24.00;50.38;101182.62;1871858;77;20117;-61
2021/10/16 08:09:20;;;;;;;;;;;;;;;24.04;50.51;101182.70;1871869;77;20105;-61
2021/10/16 08:11:56;;;;;;;;;;;;;;;24.01;49.80;101182.95;1871832;77;20406;-59
2021/10/16 08:14:23;;;;;;;;;;;;;;;24.24;48.47;101180.41;1871866;77;20157;-58
2021/10/16 08:16:51;;;;;;;;;;;;;;;24.49;48.76;101176.83;1871789;77;20238;-59
2021/10/16 08:19:19;;;;;;;;;;;;;;;25.09;47.54;101166.45;1871872;77;20187;-58
2021/10/16 08:21:48;;;;;;;;;;;;;;;25.34;47.20;101164.52;1871946;77;20117;-58
2021/10/16 08:24:16;;;;;;;;;;;;;;;25.68;47.60;101157.73;1872108;77;20160;-58
2021/10/16 08:26:43;;;;;;;;;;;;;;;26.36;47.62;101154.67;1871858;77;20156;-59
2021/10/16 08:29:11;;;;;;;;;;;;;;;27.06;46.12;101153.97;1871880;77;20121;-61
2021/10/16 08:31:39;;;;;;;;;;;;;;;27.10;44.10;101159.40;1871723;77;20121;-61
2021/10/16 08:34:07;;;;;;;;;;;;;;;27.18;44.54;101159.95;1871874;77;20152;-59
2021/10/16 08:36:34;;;;;;;;;;;;;;;27.19;44.24;101154.40;1871813;77;20117;-59
2021/10/16 08:39:03;;;;;;;;;;;;;;;27.52;44.09;101154.63;1871852;77;20125;-60
2021/10/16 08:41:30;;;;;;;;;;;;;;;27.60;44.62;101148.41;1871874;77;20156;-59
2021/10/16 08:43:58;;;;;;;;;;;;;;;27.87;44.28;101146.00;1871787;77;20121;-59
2021/10/16 08:46:27;;;;;;;;;;;;;;;28.11;43.32;101139.34;1871868;77;20144;-59
2021/10/16 08:48:56;;;;;;;;;;;;;;;28.01;42.64;101135.07;1871846;77;20125;-59
2021/10/16 08:51:24;;;;;;;;;;;;;;;28.30;42.48;101135.98;1871852;77;20148;-59
2021/10/16 08:53:51;;;;;;;;;;;;;;;28.59;41.60;101136.04;1871847;77;20121;-59
2021/10/16 08:56:22;;;;;;;;;;;;;;;28.53;40.74;101142.14;1871835;77;20109;-59
2021/10/16 08:58:51;;;;;;;;;;;;;;;27.55;42.02;101139.41;1871783;77;20121;-59
2021/10/16 09:01:19;;;;;;;;;;;;;;;26.93;42.58;101147.12;1871927;77;20121;-59
2021/10/16 09:03:50;;;;;;;;;;;;;;;27.02;42.78;101147.16;1871876;77;20125;-59
2021/10/16 09:06:35;;;;;;;;;;;;;;;27.19;43.09;101134.12;1871881;77;20121;-59
2021/10/16 09:09:03;;;;;;;;;;;;;;;27.59;42.05;101133.18;1871918;77;20125;-59
2021/10/16 09:11:38;;;;;;;;;;;;;;;27.57;42.19;101134.69;1871926;77;20148;-58
2021/10/16 09:14:07;;;;;;;;;;;;;;;27.37;41.96;101142.70;1871859;77;20403;-59
2021/10/16 09:16:48;;;;;;;;;;;;;;;27.12;43.16;101137.11;1871819;77;20117;-59
2021/10/16 09:19:21;;;;;;;;;;;;;;;26.37;43.53;101132.94;1871839;77;20118;-59
2021/10/16 09:21:50;;;;;;;;;;;;;;;25.76;44.51;101127.64;1871788;77;20439;-59
2021/10/16 09:24:19;;;;;;;;;;;;;;;25.30;45.65;101129.91;1871847;77;20121;-59
2021/10/16 09:26:52;;;;;;;;;;;;;;;25.11;46.32;101118.66;1871849;77;20391;-59
2021/10/16 09:29:21;;;;;;;;;;;;;;;24.64;46.54;101127.02;1871842;77;20525;-60
2021/10/16 09:31:51;;;;;;;;;;;;;;;24.22;47.35;101128.58;1871817;77;20164;-60
2021/10/16 09:34:23;;;;;;;;;;;;;;;24.12;47.57;101122.31;1871808;77;20153;-60
2021/10/16 09:36:51;;;;;;;;;;;;;;;24.52;46.76;101120.06;1871399;76;20121;-60
2021/10/16 09:39:19;;;;;;;;;;;;;;;24.76;45.84;101116.09;1871865;77;20105;-60
2021/10/16 09:41:48;;;;;;;;;;;;;;;25.03;45.38;101114.84;1871833;77;20152;-60
2021/10/16 09:44:23;;;;;;;;;;;;;;;24.56;46.06;101115.24;1871821;77;20121;-60
2021/10/16 09:47:07;;;;;;;;;;;;;;;24.45;46.89;101109.47;1871835;77;20151;-60
2021/10/16 09:49:36;;;;;;;;;;;;;;;24.25;47.37;101116.20;1871775;77;20126;-60
2021/10/16 09:52:06;;;;;;;;;;;;;;;24.14;47.87;101107.39;1871772;77;20203;-60
2021/10/16 09:54:39;;;;;;;;;;;;;;;24.39;47.53;101100.63;1871930;77;20415;-60
2021/10/16 09:57:07;;;;;;;;;;;;;;;24.53;47.35;101102.93;1873492;76;20116;-60
2021/10/16 09:59:36;;;;;;;;;;;;;;;24.42;47.58;101103.02;1884018;76;20367;-60
2021/10/16 10:02:04;;;;;;;;;;;;;;;24.79;47.14;101105.04;1884012;76;20198;-60
2021/10/16 10:04:33;;;;;;;;;;;;;;;25.33;46.06;101102.66;1884005;76;20108;-60
2021/10/16 10:07:02;;;;;;;;;;;;;;;25.08;46.28;101101.42;1884018;76;20387;-60
2021/10/16 10:09:30;;;;;;;;;;;;;;;24.62;47.18;101106.59;1883950;76;20117;-60
2021/10/16 10:11:59;;;;;;;;;;;;;;;24.17;47.90;101110.66;1884046;76;20117;-60
2021/10/16 10:14:28;;;;;;;;;;;;;;;23.91;48.50;101102.25;1884023;76;20117;-60
2021/10/16 10:17:00;;;;;;;;;;;;;;;23.76;48.74;101092.85;1884031;76;20419;-60
2021/10/16 10:19:29;;;;;;;;;;;;;;;23.75;48.91;101104.08;1884011;76;20359;-60
2021/10/16 10:21:57;;;;;;;;;;;;;;;23.84;48.80;101095.22;1883915;76;20144;-63
2021/10/16 10:24:39;;;;;;;;;;;;;;;24.31;48.04;101093.27;1883971;76;20159;-60
2021/10/16 10:27:08;;;;;;;;;;;;;;;24.54;47.59;101097.88;1883906;76;20379;-60
2021/10/16 10:29:36;;;;;;;;;;;;;;;24.36;47.49;101096.86;1884020;76;20120;-61
2021/10/16 10:32:06;;;;;;;;;;;;;;;23.91;47.90;101096.03;1883964;76;20160;-61
2021/10/16 10:34:35;;;;;;;;;;;;;;;23.65;48.22;101091.96;1883397;76;20195;-61
2021/10/16 10:37:15;;;;;;;;;;;;;;;23.43;48.61;101096.20;1884010;76;20379;-61
2021/10/16 10:39:44;;;;;;;;;;;;;;;23.31;48.88;101083.33;1884016;76;20147;-61
2021/10/16 10:42:13;;;;;;;;;;;;;;;23.17;48.90;101085.89;1884036;76;20109;-60
2021/10/16 10:44:42;;;;;;;;;;;;;;;23.08;49.19;101090.72;1883954;76;20104;-61
2021/10/16 10:47:24;;;;;;;;;;;;;;;22.84;49.43;101082.91;1905244;75;20111;-62
2021/10/16 10:49:53;;;;;;;;;;;;;;;22.60;49.80;101081.33;1917441;75;20102;-60
2021/10/16 10:52:27;;;;;;;;;;;;;;;22.41;50.16;101082.03;1865263;75;20172;-61
2021/10/16 10:54:57;;;;;;;;;;;;;;;22.31;50.54;101078.41;1845182;78;20147;-60
2021/10/16 10:57:46;;;;;;;;;;;;;;;22.21;50.83;101082.31;1848890;76;20142;-60
2021/10/16 11:00:15;;;;;;;;;;;;;;;22.16;51.02;101070.61;1839915;78;20219;-61
2021/10/16 11:02:43;;;;;;;;;;;;;;;22.19;51.31;101073.55;1840035;78;20146;-60
2021/10/16 11:05:32;;;;;;;;;;;;;;;22.29;51.42;101064.27;1839962;78;20181;-61
2021/10/16 11:08:12;;;;;;;;;;;;;;;22.28;51.27;101066.58;1839920;78;20246;-61
2021/10/16 11:10:41;;;;;;;;;;;;;;;22.29;51.44;101071.82;1840151;78;20146;-61
2021/10/16 11:13:16;;;;;;;;;;;;;;;22.36;51.60;101071.67;1839933;78;20173;-60
2021/10/16 11:15:45;;;;;;;;;;;;;;;22.42;51.73;101071.64;1839946;78;20413;-61
2021/10/16 11:18:13;;;;;;;;;;;;;;;22.40;51.71;101066.06;1840121;78;20381;-61
2021/10/16 11:20:42;;;;;;;;;;;;;;;22.31;51.88;101065.83;1840161;78;20384;-61
2021/10/16 11:23:21;;;;;;;;;;;;;;;22.25;52.03;101059.62;1839950;77;20572;-61
2021/10/16 11:25:56;;;;;;;;;;;;;;;22.19;52.19;101060.14;1839086;78;20130;-61
2021/10/16 11:28:24;;;;;;;;;;;;;;;22.17;52.28;101052.72;1839968;78;20198;-61
2021/10/16 11:30:54;;;;;;;;;;;;;;;22.22;52.29;101052.31;1839889;78;20134;-62
2021/10/16 11:33:27;;;;;;;;;;;;;;;22.32;52.29;101051.45;1839899;78;20416;-61
2021/10/16 11:35:56;;;;;;;;;;;;;;;22.39;52.25;101045.09;1839958;78;20220;-61
2021/10/16 11:38:25;;;;;;;;;;;;;;;22.38;52.29;101051.92;1839937;78;20469;-61
2021/10/16 11:40:54;;;;;;;;;;;;;;;22.30;52.38;101046.71;1839086;78;20150;-61
2021/10/16 11:43:22;;;;;;;;;;;;;;;22.27;52.45;101042.94;1839837;78;20146;-61
2021/10/16 11:45:51;;;;;;;;;;;;;;;22.29;52.54;101045.49;1839984;78;20135;-60
2021/10/16 11:48:20;;;;;;;;;;;;;;;22.31;52.58;101041.69;1839928;78;20146;-60
2021/10/16 11:50:49;;;;;;;;;;;;;;;22.22;52.65;101042.92;1839948;78;20126;-60
2021/10/16 11:53:21;;;;;;;;;;;;;;;22.07;52.83;101043.72;1839903;78;20444;-61
2021/10/16 11:55:54;;;;;;;;;;;;;;;21.89;53.08;101038.91;1839146;78;20167;-60
2021/10/16 11:58:23;;;;;;;;;;;;;;;21.77;53.31;101042.58;1836709;77;20177;-61
2021/10/16 12:00:51;;;;;;;;;;;;;;;21.68;53.54;101040.16;1849032;78;20150;-60
2021/10/16 12:03:20;;;;;;;;;;;;;;;21.61;53.75;101039.45;1849049;78;20146;-61
2021/10/16 12:05:52;;;;;;;;;;;;;;;21.50;54.01;101037.13;1846867;78;20142;-61
2021/10/16 12:08:20;;;;;;;;;;;;;;;21.43;54.23;101033.20;1848941;78;20172;-60
2021/10/16 12:10:49;;;;;;;;;;;;;;;21.33;54.43;101036.27;1849245;78;20389;-60
2021/10/16 12:13:34;;;;;;;;;;;;;;;21.22;54.58;101034.44;1849067;78;20142;-61
2021/10/16 12:16:15;;;;;;;;;;;;;;;21.15;54.72;101027.87;1849054;78;20146;-60
2021/10/16 12:18:50;;;;;;;;;;;;;;;21.06;54.90;101024.08;1848970;78;20173;-61
2021/10/16 12:21:29;;;;;;;;;;;;;;;20.93;55.18;101023.35;1849059;78;20439;-61
2021/10/16 12:23:57;;;;;;;;;;;;;;;20.79;55.48;101022.61;1848038;78;20146;-61
2021/10/16 12:26:30;;;;;;;;;;;;;;;20.74;55.60;101022.11;1849039;78;20169;-61
2021/10/16 12:28:58;;;;;;;;;;;;;;;20.73;55.70;101025.77;1848996;78;20180;-61
2021/10/16 12:31:26;;;;;;;;;;;;;;;20.71;55.89;101022.37;1849130;78;20146;-61
2021/10/16 12:33:56;;;;;;;;;;;;;;;20.69;55.98;101024.28;1849024;78;20181;-60
2021/10/16 12:36:31;;;;;;;;;;;;;;;20.71;56.00;101027.72;1841126;78;20127;-61
2021/10/16 12:38:59;;;;;;;;;;;;;;;20.68;56.17;101033.30;1849045;78;20177;-61
2021/10/16 12:41:32;;;;;;;;;;;;;;;20.63;56.35;101028.28;1849150;78;20143;-60
2021/10/16 12:44:01;;;;;;;;;;;;;;;20.62;56.42;101029.27;1848445;78;20217;-60
2021/10/16 12:46:29;;;;;;;;;;;;;;;20.65;56.38;101032.67;1858944;76;20395;-60
2021/10/16 12:48:57;;;;;;;;;;;;;;;20.67;56.39;101037.42;1882186;76;20124;-59
2021/10/16 12:51:38;;;;;;;;;;;;;;;20.66;56.48;101042.39;1894268;75;20146;-59